aviador You're here:

OIBB Decoded Metar

BUSHEHR in IRAN
Report Time2018-06-24 20:00:00
UTC Time2018-06-24 20:31:27
Flight Rules vfr VFR
WindCalm
Visibility9999 m
Phenomena:N/A
Clouds:N/A
Expected CloudBase > 2,800 ft AGL from Temp-Dew spread
CeilingNone
Temp28°C (ISA +13)
Dew Point21°C (66% RH)
Heat Index30.2°C
QNH0999 hPa
Density Alt2,372 ft
Elevation62 ft
Report Wrong Elevation
Raw Report
OIBB 242000Z 00000KT CAVOK 28/21 Q0999 A2953=

Extra information for OIBB:More info

Metar Taf Metar & Taf Last 4 Metars F.Rules Stats Wind Profile Meteogram Temp Stats Airport Information Weather charts Add Link Nearby VenuesMetar ALERT Operation Metar Decoded Social comments